sensor_id;sensor_type;location;lat;lon;timestamp;P1;durP1;ratioP1;P2;durP2;ratioP2
54464;SDS011;40374;49.480;20.016;2022-12-18T00:00:03;109.72;;;28.67;;
54464;SDS011;40374;49.480;20.016;2022-12-18T00:02:59;103.60;;;27.88;;
54464;SDS011;40374;49.480;20.016;2022-12-18T00:05:27;81.18;;;22.67;;
54464;SDS011;40374;49.480;20.016;2022-12-18T00:07:54;96.38;;;25.83;;
54464;SDS011;40374;49.480;20.016;2022-12-18T00:10:22;95.18;;;23.13;;
54464;SDS011;40374;49.480;20.016;2022-12-18T00:12:49;106.20;;;26.55;;
54464;SDS011;40374;49.480;20.016;2022-12-18T00:15:17;85.95;;;25.52;;
54464;SDS011;40374;49.480;20.016;2022-12-18T00:17:44;101.72;;;27.55;;
54464;SDS011;40374;49.480;20.016;2022-12-18T00:20:11;112.95;;;28.65;;
54464;SDS011;40374;49.480;20.016;2022-12-18T00:22:41;100.70;;;28.48;;
54464;SDS011;40374;49.480;20.016;2022-12-18T00:25:08;102.20;;;27.88;;
54464;SDS011;40374;49.480;20.016;2022-12-18T00:27:36;106.82;;;28.25;;
54464;SDS011;40374;49.480;20.016;2022-12-18T00:30:03;110.70;;;26.75;;
54464;SDS011;40374;49.480;20.016;2022-12-18T00:32:32;105.60;;;27.92;;
54464;SDS011;40374;49.480;20.016;2022-12-18T00:35:01;91.75;;;27.42;;
54464;SDS011;40374;49.480;20.016;2022-12-18T00:37:30;98.32;;;27.33;;
54464;SDS011;40374;49.480;20.016;2022-12-18T00:39:57;107.60;;;28.92;;
54464;SDS011;40374;49.480;20.016;2022-12-18T00:42:25;81.00;;;24.55;;
54464;SDS011;40374;49.480;20.016;2022-12-18T00:45:11;99.43;;;26.65;;
54464;SDS011;40374;49.480;20.016;2022-12-18T00:47:39;100.68;;;26.50;;
54464;SDS011;40374;49.480;20.016;2022-12-18T00:50:07;92.00;;;26.23;;
54464;SDS011;40374;49.480;20.016;2022-12-18T00:52:34;107.45;;;25.38;;
54464;SDS011;40374;49.480;20.016;2022-12-18T00:55:03;95.32;;;26.77;;
54464;SDS011;40374;49.480;20.016;2022-12-18T00:57:32;88.38;;;21.08;;
54464;SDS011;40374;49.480;20.016;2022-12-18T00:59:59;99.20;;;23.83;;
54464;SDS011;40374;49.480;20.016;2022-12-18T01:02:27;95.60;;;26.05;;
54464;SDS011;40374;49.480;20.016;2022-12-18T01:04:55;100.88;;;24.77;;
54464;SDS011;40374;49.480;20.016;2022-12-18T01:07:22;90.57;;;25.27;;
54464;SDS011;40374;49.480;20.016;2022-12-18T01:09:50;97.00;;;29.67;;
54464;SDS011;40374;49.480;20.016;2022-12-18T01:12:17;92.95;;;25.85;;
54464;SDS011;40374;49.480;20.016;2022-12-18T01:14:45;106.75;;;24.50;;
54464;SDS011;40374;49.480;20.016;2022-12-18T01:17:13;77.57;;;21.67;;
54464;SDS011;40374;49.480;20.016;2022-12-18T01:19:41;114.78;;;27.60;;
54464;SDS011;40374;49.480;20.016;2022-12-18T01:22:09;95.78;;;26.83;;
54464;SDS011;40374;49.480;20.016;2022-12-18T01:24:37;94.40;;;24.10;;
54464;SDS011;40374;49.480;20.016;2022-12-18T01:27:04;83.60;;;23.13;;
54464;SDS011;40374;49.480;20.016;2022-12-18T01:29:32;113.93;;;27.52;;
54464;SDS011;40374;49.480;20.016;2022-12-18T01:32:00;85.85;;;25.30;;
54464;SDS011;40374;49.480;20.016;2022-12-18T01:34:29;87.80;;;21.80;;
54464;SDS011;40374;49.480;20.016;2022-12-18T01:36:56;102.60;;;23.80;;
54464;SDS011;40374;49.480;20.016;2022-12-18T01:39:24;101.28;;;26.70;;
54464;SDS011;40374;49.480;20.016;2022-12-18T01:41:51;111.45;;;26.98;;
54464;SDS011;40374;49.480;20.016;2022-12-18T01:47:43;76.13;;;18.55;;
54464;SDS011;40374;49.480;20.016;2022-12-18T01:52:58;100.18;;;24.02;;
54464;SDS011;40374;49.480;20.016;2022-12-18T01:55:30;87.95;;;22.77;;
54464;SDS011;40374;49.480;20.016;2022-12-18T01:58:02;97.57;;;21.73;;
54464;SDS011;40374;49.480;20.016;2022-12-18T02:00:30;87.15;;;23.15;;
54464;SDS011;40374;49.480;20.016;2022-12-18T02:02:57;78.47;;;21.30;;
54464;SDS011;40374;49.480;20.016;2022-12-18T02:06:27;80.78;;;21.27;;
54464;SDS011;40374;49.480;20.016;2022-12-18T02:08:33;87.57;;;25.90;;
54464;SDS011;40374;49.480;20.016;2022-12-18T02:18:59;89.90;;;24.65;;
54464;SDS011;40374;49.480;20.016;2022-12-18T02:21:46;97.07;;;22.70;;
54464;SDS011;40374;49.480;20.016;2022-12-18T02:27:32;92.22;;;21.67;;
54464;SDS011;40374;49.480;20.016;2022-12-18T02:30:02;92.22;;;22.13;;
54464;SDS011;40374;49.480;20.016;2022-12-18T02:32:36;99.35;;;26.40;;
54464;SDS011;40374;49.480;20.016;2022-12-18T02:35:09;71.10;;;17.47;;
54464;SDS011;40374;49.480;20.016;2022-12-18T02:37:42;90.50;;;20.52;;
54464;SDS011;40374;49.480;20.016;2022-12-18T02:40:12;83.22;;;22.15;;
54464;SDS011;40374;49.480;20.016;2022-12-18T02:42:42;73.85;;;21.00;;
54464;SDS011;40374;49.480;20.016;2022-12-18T02:45:12;75.65;;;21.02;;
54464;SDS011;40374;49.480;20.016;2022-12-18T02:47:41;79.18;;;18.92;;
54464;SDS011;40374;49.480;20.016;2022-12-18T02:53:24;80.75;;;18.10;;
54464;SDS011;40374;49.480;20.016;2022-12-18T02:56:10;70.72;;;20.02;;
54464;SDS011;40374;49.480;20.016;2022-12-18T03:02:48;78.38;;;19.40;;
54464;SDS011;40374;49.480;20.016;2022-12-18T03:04:59;79.95;;;19.90;;
54464;SDS011;40374;49.480;20.016;2022-12-18T03:07:35;59.30;;;15.95;;
54464;SDS011;40374;49.480;20.016;2022-12-18T03:10:12;69.07;;;17.52;;
54464;SDS011;40374;49.480;20.016;2022-12-18T03:12:53;72.90;;;18.58;;
54464;SDS011;40374;49.480;20.016;2022-12-18T03:15:39;85.97;;;21.42;;
54464;SDS011;40374;49.480;20.016;2022-12-18T03:18:16;94.25;;;20.45;;
54464;SDS011;40374;49.480;20.016;2022-12-18T03:20:47;78.95;;;19.20;;
54464;SDS011;40374;49.480;20.016;2022-12-18T03:23:24;73.03;;;17.80;;
54464;SDS011;40374;49.480;20.016;2022-12-18T03:25:58;71.53;;;18.70;;
54464;SDS011;40374;49.480;20.016;2022-12-18T03:28:37;73.28;;;16.95;;
54464;SDS011;40374;49.480;20.016;2022-12-18T03:31:09;77.53;;;20.33;;
54464;SDS011;40374;49.480;20.016;2022-12-18T03:36:22;80.35;;;17.83;;
54464;SDS011;40374;49.480;20.016;2022-12-18T03:38:50;74.13;;;18.90;;
54464;SDS011;40374;49.480;20.016;2022-12-18T03:44:21;83.65;;;20.58;;
54464;SDS011;40374;49.480;20.016;2022-12-18T03:49:44;75.32;;;18.90;;
54464;SDS011;40374;49.480;20.016;2022-12-18T03:52:30;87.55;;;20.65;;
54464;SDS011;40374;49.480;20.016;2022-12-18T03:55:03;76.97;;;17.30;;
54464;SDS011;40374;49.480;20.016;2022-12-18T03:57:34;68.80;;;17.02;;
54464;SDS011;40374;49.480;20.016;2022-12-18T04:00:08;75.60;;;18.48;;
54464;SDS011;40374;49.480;20.016;2022-12-18T04:02:54;81.57;;;19.50;;
54464;SDS011;40374;49.480;20.016;2022-12-18T04:05:32;70.60;;;18.55;;
54464;SDS011;40374;49.480;20.016;2022-12-18T04:08:02;66.78;;;17.45;;
54464;SDS011;40374;49.480;20.016;2022-12-18T04:10:36;55.38;;;17.67;;
54464;SDS011;40374;49.480;20.016;2022-12-18T04:13:04;72.82;;;18.38;;
54464;SDS011;40374;49.480;20.016;2022-12-18T04:15:33;67.97;;;18.95;;
54464;SDS011;40374;49.480;20.016;2022-12-18T04:18:03;70.72;;;18.88;;
54464;SDS011;40374;49.480;20.016;2022-12-18T04:20:38;72.65;;;18.23;;
54464;SDS011;40374;49.480;20.016;2022-12-18T04:23:07;70.93;;;17.77;;
54464;SDS011;40374;49.480;20.016;2022-12-18T04:25:36;60.92;;;16.42;;
54464;SDS011;40374;49.480;20.016;2022-12-18T04:28:07;70.10;;;17.75;;
54464;SDS011;40374;49.480;20.016;2022-12-18T04:30:36;78.97;;;16.45;;
54464;SDS011;40374;49.480;20.016;2022-12-18T04:33:11;53.78;;;13.25;;
54464;SDS011;40374;49.480;20.016;2022-12-18T04:35:40;77.72;;;20.50;;
54464;SDS011;40374;49.480;20.016;2022-12-18T04:38:08;86.07;;;22.60;;
54464;SDS011;40374;49.480;20.016;2022-12-18T04:40:37;62.75;;;16.83;;
54464;SDS011;40374;49.480;20.016;2022-12-18T04:43:13;91.25;;;20.17;;
54464;SDS011;40374;49.480;20.016;2022-12-18T04:45:41;83.53;;;20.67;;
54464;SDS011;40374;49.480;20.016;2022-12-18T04:48:08;89.38;;;21.75;;
54464;SDS011;40374;49.480;20.016;2022-12-18T04:50:36;72.63;;;19.38;;
54464;SDS011;40374;49.480;20.016;2022-12-18T04:53:04;43.90;;;11.70;;
54464;SDS011;40374;49.480;20.016;2022-12-18T04:55:31;88.05;;;17.83;;
54464;SDS011;40374;49.480;20.016;2022-12-18T04:57:58;73.18;;;18.17;;
54464;SDS011;40374;49.480;20.016;2022-12-18T05:00:26;102.22;;;25.08;;
54464;SDS011;40374;49.480;20.016;2022-12-18T05:02:54;80.13;;;19.20;;
54464;SDS011;40374;49.480;20.016;2022-12-18T05:05:21;79.63;;;21.92;;
54464;SDS011;40374;49.480;20.016;2022-12-18T05:07:49;53.92;;;12.27;;
54464;SDS011;40374;49.480;20.016;2022-12-18T05:10:16;86.47;;;19.02;;
54464;SDS011;40374;49.480;20.016;2022-12-18T05:12:45;89.30;;;21.88;;
54464;SDS011;40374;49.480;20.016;2022-12-18T05:15:27;79.85;;;19.02;;
54464;SDS011;40374;49.480;20.016;2022-12-18T05:17:57;55.67;;;16.23;;
54464;SDS011;40374;49.480;20.016;2022-12-18T05:20:26;76.63;;;16.77;;
54464;SDS011;40374;49.480;20.016;2022-12-18T05:22:55;77.88;;;20.27;;
54464;SDS011;40374;49.480;20.016;2022-12-18T05:25:22;82.45;;;17.90;;
54464;SDS011;40374;49.480;20.016;2022-12-18T05:27:50;58.97;;;14.15;;
54464;SDS011;40374;49.480;20.016;2022-12-18T05:30:17;77.60;;;20.85;;
54464;SDS011;40374;49.480;20.016;2022-12-18T05:32:47;53.70;;;14.52;;
54464;SDS011;40374;49.480;20.016;2022-12-18T05:35:14;65.55;;;16.98;;
54464;SDS011;40374;49.480;20.016;2022-12-18T05:37:42;72.65;;;18.60;;
54464;SDS011;40374;49.480;20.016;2022-12-18T05:40:09;72.78;;;14.75;;
54464;SDS011;40374;49.480;20.016;2022-12-18T05:42:38;83.07;;;17.23;;
54464;SDS011;40374;49.480;20.016;2022-12-18T05:45:05;72.22;;;18.48;;
54464;SDS011;40374;49.480;20.016;2022-12-18T05:47:33;80.93;;;18.88;;
54464;SDS011;40374;49.480;20.016;2022-12-18T05:50:01;75.40;;;17.23;;
54464;SDS011;40374;49.480;20.016;2022-12-18T05:52:28;85.85;;;21.20;;
54464;SDS011;40374;49.480;20.016;2022-12-18T05:54:57;83.45;;;21.05;;
54464;SDS011;40374;49.480;20.016;2022-12-18T05:57:26;94.78;;;21.50;;
54464;SDS011;40374;49.480;20.016;2022-12-18T05:59:53;56.08;;;15.32;;
54464;SDS011;40374;49.480;20.016;2022-12-18T06:02:20;95.82;;;22.73;;
54464;SDS011;40374;49.480;20.016;2022-12-18T06:04:48;87.63;;;22.33;;
54464;SDS011;40374;49.480;20.016;2022-12-18T06:07:15;90.32;;;21.40;;
54464;SDS011;40374;49.480;20.016;2022-12-18T06:09:43;72.72;;;14.35;;
54464;SDS011;40374;49.480;20.016;2022-12-18T06:12:10;102.60;;;19.88;;
54464;SDS011;40374;49.480;20.016;2022-12-18T06:14:38;84.75;;;20.58;;
54464;SDS011;40374;49.480;20.016;2022-12-18T06:17:06;88.25;;;17.88;;
54464;SDS011;40374;49.480;20.016;2022-12-18T06:19:33;67.85;;;16.67;;
54464;SDS011;40374;49.480;20.016;2022-12-18T06:22:01;78.55;;;19.05;;
54464;SDS011;40374;49.480;20.016;2022-12-18T06:24:28;85.28;;;16.75;;
54464;SDS011;40374;49.480;20.016;2022-12-18T06:26:56;84.90;;;20.40;;
54464;SDS011;40374;49.480;20.016;2022-12-18T06:29:24;75.50;;;19.63;;
54464;SDS011;40374;49.480;20.016;2022-12-18T06:31:51;67.22;;;13.80;;
54464;SDS011;40374;49.480;20.016;2022-12-18T06:34:18;87.28;;;18.35;;
54464;SDS011;40374;49.480;20.016;2022-12-18T06:36:46;83.78;;;18.77;;
54464;SDS011;40374;49.480;20.016;2022-12-18T06:39:13;64.85;;;17.70;;
54464;SDS011;40374;49.480;20.016;2022-12-18T06:41:41;78.47;;;19.65;;
54464;SDS011;40374;49.480;20.016;2022-12-18T06:44:08;60.13;;;14.48;;
54464;SDS011;40374;49.480;20.016;2022-12-18T06:46:37;90.53;;;21.77;;
54464;SDS011;40374;49.480;20.016;2022-12-18T06:49:04;99.18;;;21.85;;
54464;SDS011;40374;49.480;20.016;2022-12-18T06:51:32;86.00;;;21.73;;
54464;SDS011;40374;49.480;20.016;2022-12-18T06:53:59;78.43;;;19.33;;
54464;SDS011;40374;49.480;20.016;2022-12-18T06:56:27;84.53;;;20.65;;
54464;SDS011;40374;49.480;20.016;2022-12-18T06:58:54;88.18;;;20.10;;
54464;SDS011;40374;49.480;20.016;2022-12-18T07:01:22;114.90;;;31.48;;
54464;SDS011;40374;49.480;20.016;2022-12-18T07:03:53;95.50;;;22.92;;
54464;SDS011;40374;49.480;20.016;2022-12-18T07:06:23;98.57;;;23.25;;
54464;SDS011;40374;49.480;20.016;2022-12-18T07:08:52;104.10;;;22.45;;
54464;SDS011;40374;49.480;20.016;2022-12-18T07:11:21;71.40;;;18.35;;
54464;SDS011;40374;49.480;20.016;2022-12-18T07:13:48;82.80;;;20.40;;
54464;SDS011;40374;49.480;20.016;2022-12-18T07:16:17;67.80;;;15.73;;
54464;SDS011;40374;49.480;20.016;2022-12-18T07:18:51;72.03;;;20.08;;
54464;SDS011;40374;49.480;20.016;2022-12-18T07:21:19;72.72;;;17.67;;
54464;SDS011;40374;49.480;20.016;2022-12-18T07:23:47;91.38;;;16.95;;
54464;SDS011;40374;49.480;20.016;2022-12-18T07:26:16;68.60;;;16.88;;
54464;SDS011;40374;49.480;20.016;2022-12-18T07:28:45;89.65;;;17.90;;
54464;SDS011;40374;49.480;20.016;2022-12-18T07:31:14;74.68;;;17.02;;
54464;SDS011;40374;49.480;20.016;2022-12-18T07:33:47;79.65;;;23.10;;
54464;SDS011;40374;49.480;20.016;2022-12-18T07:36:15;91.18;;;23.60;;
54464;SDS011;40374;49.480;20.016;2022-12-18T07:38:43;99.40;;;28.70;;
54464;SDS011;40374;49.480;20.016;2022-12-18T07:41:14;92.82;;;25.35;;
54464;SDS011;40374;49.480;20.016;2022-12-18T07:43:41;108.45;;;28.67;;
54464;SDS011;40374;49.480;20.016;2022-12-18T07:46:10;81.32;;;24.30;;
54464;SDS011;40374;49.480;20.016;2022-12-18T07:48:41;86.72;;;23.20;;
54464;SDS011;40374;49.480;20.016;2022-12-18T07:51:16;77.13;;;20.02;;
54464;SDS011;40374;49.480;20.016;2022-12-18T07:53:44;80.38;;;22.27;;
54464;SDS011;40374;49.480;20.016;2022-12-18T07:56:14;93.28;;;25.77;;
54464;SDS011;40374;49.480;20.016;2022-12-18T07:58:57;76.50;;;20.55;;
54464;SDS011;40374;49.480;20.016;2022-12-18T08:01:29;71.25;;;19.02;;
54464;SDS011;40374;49.480;20.016;2022-12-18T08:03:57;91.95;;;23.42;;
54464;SDS011;40374;49.480;20.016;2022-12-18T08:06:25;93.35;;;26.25;;
54464;SDS011;40374;49.480;20.016;2022-12-18T08:08:53;105.20;;;32.28;;
54464;SDS011;40374;49.480;20.016;2022-12-18T08:11:22;113.93;;;33.60;;
54464;SDS011;40374;49.480;20.016;2022-12-18T08:13:51;134.82;;;38.30;;
54464;SDS011;40374;49.480;20.016;2022-12-18T08:16:20;136.93;;;46.10;;
54464;SDS011;40374;49.480;20.016;2022-12-18T08:18:48;181.15;;;57.17;;
54464;SDS011;40374;49.480;20.016;2022-12-18T08:21:18;220.40;;;66.25;;
54464;SDS011;40374;49.480;20.016;2022-12-18T08:23:49;230.55;;;74.60;;
54464;SDS011;40374;49.480;20.016;2022-12-18T08:26:18;178.70;;;56.13;;
54464;SDS011;40374;49.480;20.016;2022-12-18T08:28:47;170.60;;;49.17;;
54464;SDS011;40374;49.480;20.016;2022-12-18T08:31:17;167.40;;;49.40;;
54464;SDS011;40374;49.480;20.016;2022-12-18T08:33:48;196.43;;;53.78;;
54464;SDS011;40374;49.480;20.016;2022-12-18T08:36:17;196.38;;;57.05;;
54464;SDS011;40374;49.480;20.016;2022-12-18T08:38:46;200.73;;;59.05;;
54464;SDS011;40374;49.480;20.016;2022-12-18T08:41:14;237.43;;;67.78;;
54464;SDS011;40374;49.480;20.016;2022-12-18T08:43:43;347.20;;;98.57;;
54464;SDS011;40374;49.480;20.016;2022-12-18T08:46:37;396.65;;;122.28;;
54464;SDS011;40374;49.480;20.016;2022-12-18T08:49:07;440.02;;;130.02;;
54464;SDS011;40374;49.480;20.016;2022-12-18T08:51:35;333.23;;;97.40;;
54464;SDS011;40374;49.480;20.016;2022-12-18T08:54:03;334.85;;;93.60;;
54464;SDS011;40374;49.480;20.016;2022-12-18T08:56:32;374.85;;;114.22;;
54464;SDS011;40374;49.480;20.016;2022-12-18T08:59:01;426.77;;;133.02;;
54464;SDS011;40374;49.480;20.016;2022-12-18T09:01:29;355.90;;;102.43;;
54464;SDS011;40374;49.480;20.016;2022-12-18T09:03:57;361.85;;;94.70;;
54464;SDS011;40374;49.480;20.016;2022-12-18T09:06:25;257.85;;;74.10;;
54464;SDS011;40374;49.480;20.016;2022-12-18T09:08:53;252.10;;;70.68;;
54464;SDS011;40374;49.480;20.016;2022-12-18T09:11:23;270.40;;;77.47;;
54464;SDS011;40374;49.480;20.016;2022-12-18T09:13:53;249.43;;;70.47;;
54464;SDS011;40374;49.480;20.016;2022-12-18T09:16:22;198.50;;;58.72;;
54464;SDS011;40374;49.480;20.016;2022-12-18T09:18:57;162.98;;;47.70;;
54464;SDS011;40374;49.480;20.016;2022-12-18T09:21:28;176.18;;;54.88;;
54464;SDS011;40374;49.480;20.016;2022-12-18T09:23:58;171.48;;;52.15;;
54464;SDS011;40374;49.480;20.016;2022-12-18T09:26:26;182.45;;;54.75;;
54464;SDS011;40374;49.480;20.016;2022-12-18T09:28:54;200.88;;;59.03;;
54464;SDS011;40374;49.480;20.016;2022-12-18T09:31:23;180.80;;;53.75;;
54464;SDS011;40374;49.480;20.016;2022-12-18T09:33:51;176.27;;;52.67;;
54464;SDS011;40374;49.480;20.016;2022-12-18T09:36:19;143.57;;;44.67;;
54464;SDS011;40374;49.480;20.016;2022-12-18T09:38:47;143.65;;;41.80;;
54464;SDS011;40374;49.480;20.016;2022-12-18T09:44:25;168.90;;;48.75;;
54464;SDS011;40374;49.480;20.016;2022-12-18T09:47:15;147.60;;;41.08;;
54464;SDS011;40374;49.480;20.016;2022-12-18T09:49:51;134.90;;;38.28;;
54464;SDS011;40374;49.480;20.016;2022-12-18T09:52:41;133.85;;;32.70;;
54464;SDS011;40374;49.480;20.016;2022-12-18T10:00:57;102.85;;;29.10;;
54464;SDS011;40374;49.480;20.016;2022-12-18T10:03:25;110.97;;;33.88;;
54464;SDS011;40374;49.480;20.016;2022-12-18T10:05:56;131.68;;;38.75;;
54464;SDS011;40374;49.480;20.016;2022-12-18T10:16:43;100.45;;;26.17;;
54464;SDS011;40374;49.480;20.016;2022-12-18T10:24:42;100.40;;;26.83;;
54464;SDS011;40374;49.480;20.016;2022-12-18T10:27:25;100.63;;;24.02;;
54464;SDS011;40374;49.480;20.016;2022-12-18T10:29:54;86.93;;;21.00;;
54464;SDS011;40374;49.480;20.016;2022-12-18T10:32:23;87.03;;;25.52;;
54464;SDS011;40374;49.480;20.016;2022-12-18T10:34:54;86.25;;;23.98;;
54464;SDS011;40374;49.480;20.016;2022-12-18T10:37:28;85.55;;;21.67;;
54464;SDS011;40374;49.480;20.016;2022-12-18T10:42:45;94.40;;;21.75;;
54464;SDS011;40374;49.480;20.016;2022-12-18T10:45:14;93.38;;;22.88;;
54464;SDS011;40374;49.480;20.016;2022-12-18T10:47:48;84.22;;;25.00;;
54464;SDS011;40374;49.480;20.016;2022-12-18T10:50:28;84.95;;;21.83;;
54464;SDS011;40374;49.480;20.016;2022-12-18T10:53:25;94.25;;;24.92;;
54464;SDS011;40374;49.480;20.016;2022-12-18T10:55:56;117.07;;;34.30;;
54464;SDS011;40374;49.480;20.016;2022-12-18T10:58:35;99.03;;;26.15;;
54464;SDS011;40374;49.480;20.016;2022-12-18T11:01:14;104.35;;;25.80;;
54464;SDS011;40374;49.480;20.016;2022-12-18T11:03:47;108.97;;;27.40;;
54464;SDS011;40374;49.480;20.016;2022-12-18T11:06:29;82.95;;;23.38;;
54464;SDS011;40374;49.480;20.016;2022-12-18T11:09:01;85.65;;;22.60;;
54464;SDS011;40374;49.480;20.016;2022-12-18T11:11:40;83.47;;;20.15;;
54464;SDS011;40374;49.480;20.016;2022-12-18T11:14:16;92.47;;;23.70;;
54464;SDS011;40374;49.480;20.016;2022-12-18T11:16:48;82.25;;;27.60;;
54464;SDS011;40374;49.480;20.016;2022-12-18T11:19:39;98.18;;;27.75;;
54464;SDS011;40374;49.480;20.016;2022-12-18T11:22:19;88.82;;;24.02;;
54464;SDS011;40374;49.480;20.016;2022-12-18T11:24:58;90.32;;;22.75;;
54464;SDS011;40374;49.480;20.016;2022-12-18T11:36:33;88.78;;;23.08;;
54464;SDS011;40374;49.480;20.016;2022-12-18T11:39:10;83.93;;;22.08;;
54464;SDS011;40374;49.480;20.016;2022-12-18T11:41:49;82.43;;;22.55;;
54464;SDS011;40374;49.480;20.016;2022-12-18T11:47:21;87.28;;;23.58;;
54464;SDS011;40374;49.480;20.016;2022-12-18T11:50:00;97.18;;;26.77;;
54464;SDS011;40374;49.480;20.016;2022-12-18T11:52:33;83.75;;;25.27;;
54464;SDS011;40374;49.480;20.016;2022-12-18T12:00:39;90.57;;;27.50;;
54464;SDS011;40374;49.480;20.016;2022-12-18T12:03:21;88.40;;;26.45;;
54464;SDS011;40374;49.480;20.016;2022-12-18T12:06:23;112.32;;;28.17;;
54464;SDS011;40374;49.480;20.016;2022-12-18T12:09:20;93.60;;;24.50;;
54464;SDS011;40374;49.480;20.016;2022-12-18T12:12:17;82.00;;;22.42;;
54464;SDS011;40374;49.480;20.016;2022-12-18T12:15:01;91.93;;;24.50;;
54464;SDS011;40374;49.480;20.016;2022-12-18T12:17:34;97.50;;;27.60;;
54464;SDS011;40374;49.480;20.016;2022-12-18T12:20:14;103.32;;;27.27;;
54464;SDS011;40374;49.480;20.016;2022-12-18T12:26:16;102.97;;;31.65;;
54464;SDS011;40374;49.480;20.016;2022-12-18T12:37:03;135.95;;;36.88;;
54464;SDS011;40374;49.480;20.016;2022-12-18T12:39:40;107.78;;;28.63;;
54464;SDS011;40374;49.480;20.016;2022-12-18T12:45:41;118.53;;;30.65;;
54464;SDS011;40374;49.480;20.016;2022-12-18T12:48:57;138.45;;;37.85;;
54464;SDS011;40374;49.480;20.016;2022-12-18T12:51:15;137.27;;;38.28;;
54464;SDS011;40374;49.480;20.016;2022-12-18T12:53:47;138.98;;;37.80;;
54464;SDS011;40374;49.480;20.016;2022-12-18T12:56:17;116.65;;;33.53;;
54464;SDS011;40374;49.480;20.016;2022-12-18T12:58:49;124.68;;;30.42;;
54464;SDS011;40374;49.480;20.016;2022-12-18T13:01:57;133.15;;;35.88;;
54464;SDS011;40374;49.480;20.016;2022-12-18T13:04:53;130.82;;;35.20;;
54464;SDS011;40374;49.480;20.016;2022-12-18T13:07:29;137.02;;;39.72;;
54464;SDS011;40374;49.480;20.016;2022-12-18T13:13:00;137.85;;;39.72;;
54464;SDS011;40374;49.480;20.016;2022-12-18T13:18:22;128.82;;;35.28;;
54464;SDS011;40374;49.480;20.016;2022-12-18T13:26:00;114.30;;;29.30;;
54464;SDS011;40374;49.480;20.016;2022-12-18T13:28:55;118.80;;;31.70;;
54464;SDS011;40374;49.480;20.016;2022-12-18T13:36:55;140.77;;;32.78;;
54464;SDS011;40374;49.480;20.016;2022-12-18T13:39:44;139.45;;;33.53;;
54464;SDS011;40374;49.480;20.016;2022-12-18T13:44:59;147.38;;;33.25;;
54464;SDS011;40374;49.480;20.016;2022-12-18T13:47:30;139.35;;;34.55;;
54464;SDS011;40374;49.480;20.016;2022-12-18T13:50:02;142.55;;;33.47;;
54464;SDS011;40374;49.480;20.016;2022-12-18T13:52:37;161.82;;;38.20;;
54464;SDS011;40374;49.480;20.016;2022-12-18T13:55:10;156.77;;;36.35;;
54464;SDS011;40374;49.480;20.016;2022-12-18T13:57:45;169.63;;;42.47;;
54464;SDS011;40374;49.480;20.016;2022-12-18T14:02:45;172.68;;;42.60;;
54464;SDS011;40374;49.480;20.016;2022-12-18T14:05:30;169.32;;;42.45;;
54464;SDS011;40374;49.480;20.016;2022-12-18T14:08:03;163.13;;;33.50;;
54464;SDS011;40374;49.480;20.016;2022-12-18T14:10:35;156.68;;;36.83;;
54464;SDS011;40374;49.480;20.016;2022-12-18T14:13:23;184.20;;;46.78;;
54464;SDS011;40374;49.480;20.016;2022-12-18T14:15:56;173.75;;;44.33;;
54464;SDS011;40374;49.480;20.016;2022-12-18T14:21:20;182.18;;;40.33;;
54464;SDS011;40374;49.480;20.016;2022-12-18T14:24:12;125.68;;;28.83;;
54464;SDS011;40374;49.480;20.016;2022-12-18T14:26:48;151.13;;;35.22;;
54464;SDS011;40374;49.480;20.016;2022-12-18T14:29:24;147.50;;;30.95;;
54464;SDS011;40374;49.480;20.016;2022-12-18T14:32:15;159.20;;;39.17;;
54464;SDS011;40374;49.480;20.016;2022-12-18T14:34:53;250.98;;;35.78;;
54464;SDS011;40374;49.480;20.016;2022-12-18T14:37:23;155.55;;;37.92;;
54464;SDS011;40374;49.480;20.016;2022-12-18T14:39:58;130.65;;;29.80;;
54464;SDS011;40374;49.480;20.016;2022-12-18T14:42:34;137.25;;;31.08;;
54464;SDS011;40374;49.480;20.016;2022-12-18T14:48:17;222.07;;;34.35;;
54464;SDS011;40374;49.480;20.016;2022-12-18T14:51:06;112.35;;;25.60;;
54464;SDS011;40374;49.480;20.016;2022-12-18T14:53:44;166.52;;;32.60;;
54464;SDS011;40374;49.480;20.016;2022-12-18T14:58:48;142.55;;;29.77;;
54464;SDS011;40374;49.480;20.016;2022-12-18T15:01:30;136.80;;;28.65;;
54464;SDS011;40374;49.480;20.016;2022-12-18T15:04:03;153.70;;;29.02;;
54464;SDS011;40374;49.480;20.016;2022-12-18T15:06:33;151.55;;;31.52;;
54464;SDS011;40374;49.480;20.016;2022-12-18T15:09:05;174.88;;;32.83;;
54464;SDS011;40374;49.480;20.016;2022-12-18T15:11:49;136.30;;;30.98;;
54464;SDS011;40374;49.480;20.016;2022-12-18T15:16:58;162.38;;;32.65;;
54464;SDS011;40374;49.480;20.016;2022-12-18T15:19:38;166.38;;;33.38;;
54464;SDS011;40374;49.480;20.016;2022-12-18T15:24:50;143.05;;;28.60;;
54464;SDS011;40374;49.480;20.016;2022-12-18T15:27:28;136.32;;;30.95;;
54464;SDS011;40374;49.480;20.016;2022-12-18T15:32:37;135.88;;;28.00;;
54464;SDS011;40374;49.480;20.016;2022-12-18T15:37:35;131.77;;;29.67;;
54464;SDS011;40374;49.480;20.016;2022-12-18T15:40:18;140.57;;;29.33;;
54464;SDS011;40374;49.480;20.016;2022-12-18T15:42:47;137.48;;;28.60;;
54464;SDS011;40374;49.480;20.016;2022-12-18T15:45:34;125.03;;;28.67;;
54464;SDS011;40374;49.480;20.016;2022-12-18T15:48:17;130.52;;;28.73;;
54464;SDS011;40374;49.480;20.016;2022-12-18T15:50:51;113.63;;;26.80;;
54464;SDS011;40374;49.480;20.016;2022-12-18T15:53:27;125.35;;;28.38;;
54464;SDS011;40374;49.480;20.016;2022-12-18T15:55:58;124.35;;;28.48;;
54464;SDS011;40374;49.480;20.016;2022-12-18T15:58:44;106.57;;;24.15;;
54464;SDS011;40374;49.480;20.016;2022-12-18T16:01:12;139.63;;;28.10;;
54464;SDS011;40374;49.480;20.016;2022-12-18T16:03:39;131.20;;;31.83;;
54464;SDS011;40374;49.480;20.016;2022-12-18T16:06:08;221.25;;;54.33;;
54464;SDS011;40374;49.480;20.016;2022-12-18T16:08:36;261.88;;;68.75;;
54464;SDS011;40374;49.480;20.016;2022-12-18T16:11:05;229.25;;;60.38;;
54464;SDS011;40374;49.480;20.016;2022-12-18T16:13:36;194.98;;;52.40;;
54464;SDS011;40374;49.480;20.016;2022-12-18T16:16:04;207.48;;;54.17;;
54464;SDS011;40374;49.480;20.016;2022-12-18T16:18:32;187.98;;;49.67;;
54464;SDS011;40374;49.480;20.016;2022-12-18T16:21:00;182.98;;;43.45;;
54464;SDS011;40374;49.480;20.016;2022-12-18T16:23:28;145.95;;;37.33;;
54464;SDS011;40374;49.480;20.016;2022-12-18T16:25:56;141.52;;;33.95;;
54464;SDS011;40374;49.480;20.016;2022-12-18T16:28:23;126.57;;;30.25;;
54464;SDS011;40374;49.480;20.016;2022-12-18T16:30:51;125.05;;;33.17;;
54464;SDS011;40374;49.480;20.016;2022-12-18T16:33:19;127.68;;;33.03;;
54464;SDS011;40374;49.480;20.016;2022-12-18T16:35:50;131.80;;;31.88;;
54464;SDS011;40374;49.480;20.016;2022-12-18T16:38:19;155.45;;;32.90;;
54464;SDS011;40374;49.480;20.016;2022-12-18T16:40:47;163.88;;;37.33;;
54464;SDS011;40374;49.480;20.016;2022-12-18T16:46:02;139.65;;;29.77;;